Time;durP1;ratioP1;P1;durP2;ratioP2;P2;SDS_P1;SDS_P2;PMS_P1;PMS_P2;Temp;Humidity;BMP_temperature;BMP_pressure;BME280_temperature;BME280_humidity;BME280_pressure;Samples;Min_cycle;Max_cycle;Signal;HPM_P1;HPM_P2
2024/03/11 10:29:22;;;;;;;;;;;;;;;1.39;58.48;101498.06;1747337;80;20124;-77
2024/03/11 10:31:51;;;;;;;;;;;;;;;1.44;58.37;101498.09;1743141;82;20145;-78
2024/03/11 10:34:21;;;;;;;;;;;;;;;1.48;58.57;101492.98;1746652;81;20135;-79
2024/03/11 10:36:56;;;;;;;;;;;;;;;1.55;58.19;101478.47;1750394;81;20153;-74
2024/03/11 10:41:53;;;;;;;;;;;;;;;1.53;58.04;101468.20;1745086;82;20409;-74
2024/03/11 10:44:23;;;;;;;;;;;;;;;1.59;58.24;101475.92;1746407;82;20103;-77
2024/03/11 10:46:53;;;;;;;;;;;;;;;1.61;58.12;101470.77;1744533;82;20166;-80
2024/03/11 10:49:21;;;;;;;;;;;;;;;1.60;58.15;101474.21;1746468;81;20099;-82
2024/03/11 10:51:48;;;;;;;;;;;;;;;1.62;58.23;101469.91;1753583;81;20124;-80
2024/03/11 10:54:23;;;;;;;;;;;;;;;1.62;58.08;101461.78;1776848;81;20152;-76
2024/03/11 10:56:55;;;;;;;;;;;;;;;1.65;57.39;101472.48;1777173;81;20120;-80
2024/03/11 10:59:32;;;;;;;;;;;;;;;1.68;57.21;101467.37;1772546;81;20367;-79
2024/03/11 11:01:59;;;;;;;;;;;;;;;1.68;57.16;101467.37;1766971;81;20120;-79
2024/03/11 11:04:33;;;;;;;;;;;;;;;1.68;56.86;101476.35;1762726;81;20468;-80
2024/03/11 11:07:02;;;;;;;;;;;;;;;1.64;56.92;101472.05;1754048;81;20100;-78
2024/03/11 11:09:31;;;;;;;;;;;;;;;1.65;57.11;101463.50;1764481;81;20117;-78
2024/03/11 11:12:03;;;;;;;;;;;;;;;1.70;57.31;101468.23;1736264;81;20113;-81
2024/03/11 11:14:28;;;;;;;;;;;;;;;1.72;55.76;101469.09;1721983;82;20560;-78
2024/03/11 11:16:58;;;;;;;;;;;;;;;1.65;55.56;101468.64;1743809;80;20131;-79
2024/03/11 11:19:33;;;;;;;;;;;;;;;1.61;55.59;101468.20;1719597;80;20162;-78
2024/03/11 11:22:06;;;;;;;;;;;;;;;1.62;55.92;101473.33;1744433;81;20104;-78
2024/03/11 11:24:39;;;;;;;;;;;;;;;1.62;54.49;101468.20;1755802;81;20120;-79
2024/03/11 11:27:06;;;;;;;;;;;;;;;1.62;54.48;101464.34;1756854;81;20148;-82
2024/03/11 11:58:43;;;;;;;;;;;;;;;1.87;55.01;101446.03;1742965;81;20699;-76
2024/03/11 12:01:10;;;;;;;;;;;;;;;1.85;55.85;101436.18;1755436;81;20148;-77
2024/03/11 12:03:43;;;;;;;;;;;;;;;1.88;56.08;101448.17;1762843;81;20100;-76
2024/03/11 12:06:24;;;;;;;;;;;;;;;1.90;55.06;101440.90;1715618;82;20099;-77
2024/03/11 12:08:52;;;;;;;;;;;;;;;1.87;55.19;101424.63;1740028;81;20111;-77
2024/03/11 12:11:34;;;;;;;;;;;;;;;1.88;54.54;101432.33;1772692;81;20128;-82
2024/03/11 12:14:09;;;;;;;;;;;;;;;1.85;54.61;101419.48;1725003;82;20131;-80
2024/03/11 12:16:39;;;;;;;;;;;;;;;1.84;55.23;101417.77;1744848;81;20171;-77
2024/03/11 12:19:06;;;;;;;;;;;;;;;1.88;55.06;101416.06;1747971;81;20163;-76
2024/03/11 12:21:33;;;;;;;;;;;;;;;1.91;55.42;101421.21;1759622;81;20151;-79
2024/03/11 12:24:09;;;;;;;;;;;;;;;1.96;55.29;101415.66;1805208;79;20106;-78
2024/03/11 12:26:34;;;;;;;;;;;;;;;2.02;54.96;101419.48;1752716;82;20116;-79
2024/03/11 12:29:14;;;;;;;;;;;;;;;2.07;54.68;101414.35;1728931;81;20121;-80
2024/03/11 12:31:37;;;;;;;;;;;;;;;2.09;54.84;101417.36;1771773;81;20113;-79
2024/03/11 12:34:06;;;;;;;;;;;;;;;2.10;55.18;101416.50;1759818;81;20109;-80
2024/03/11 12:36:37;;;;;;;;;;;;;;;2.12;55.33;101414.79;1757603;81;20097;-78
2024/03/11 12:39:08;;;;;;;;;;;;;;;2.17;55.26;101416.08;1779369;80;20113;-78
2024/03/11 12:41:38;;;;;;;;;;;;;;;2.19;54.61;101411.80;1736457;82;20178;-81
2024/03/11 12:44:18;;;;;;;;;;;;;;;2.17;54.49;101405.38;1760903;81;20132;-81
2024/03/11 12:46:45;;;;;;;;;;;;;;;2.18;54.61;101402.38;1749889;81;20115;-82
2024/03/11 12:49:16;;;;;;;;;;;;;;;2.21;54.36;101404.52;1752979;81;20123;-79
2024/03/11 12:51:42;;;;;;;;;;;;;;;2.24;54.51;101399.37;1727519;83;20129;-83
2024/03/11 12:54:13;;;;;;;;;;;;;;;2.28;53.91;101404.09;1746465;81;20158;-85
2024/03/11 12:56:41;;;;;;;;;;;;;;;2.29;53.66;101411.80;1767962;80;20102;-80
2024/03/11 12:59:13;;;;;;;;;;;;;;;2.28;53.41;101407.52;1711061;82;20500;-79
2024/03/11 13:01:43;;;;;;;;;;;;;;;2.25;53.18;101398.95;1752272;81;20123;-81
2024/03/11 13:04:19;;;;;;;;;;;;;;;2.22;53.17;101398.95;1755748;81;20112;-79
2024/03/11 13:06:47;;;;;;;;;;;;;;;2.22;53.88;101398.52;1750666;81;20425;-84
2024/03/11 13:09:24;;;;;;;;;;;;;;;2.27;54.17;101393.39;1733395;83;20112;-79
2024/03/11 13:11:53;;;;;;;;;;;;;;;2.29;54.38;101392.53;1736058;81;20117;-71
2024/03/11 13:14:22;;;;;;;;;;;;;;;2.32;53.79;101395.09;1746593;81;20140;-80
2024/03/11 13:16:48;;;;;;;;;;;;;;;2.28;53.48;101389.95;1743122;82;20147;-76
2024/03/11 13:19:14;;;;;;;;;;;;;;;2.28;53.91;101386.11;1745012;82;20493;-77
2024/03/11 13:21:44;;;;;;;;;;;;;;;2.30;54.23;101391.67;1753365;81;20113;-84
2024/03/11 13:24:11;;;;;;;;;;;;;;;2.36;54.33;101380.96;1738307;81;20132;-83
2024/03/11 13:26:38;;;;;;;;;;;;;;;2.40;53.70;101374.96;1743648;81;20499;-78
2024/03/11 13:29:09;;;;;;;;;;;;;;;2.39;53.34;101383.10;1743977;81;20148;-80
2024/03/11 13:31:40;;;;;;;;;;;;;;;2.37;53.81;101378.39;1745280;81;20183;-81
2024/03/11 13:34:08;;;;;;;;;;;;;;;2.37;53.82;101371.97;1727323;81;20311;-80
2024/03/11 13:36:34;;;;;;;;;;;;;;;2.33;53.25;101372.39;1740780;81;20129;-80
2024/03/11 13:39:15;;;;;;;;;;;;;;;2.29;53.58;101377.53;1743770;81;20147;-82
2024/03/11 13:41:35;;;;;;;;;;;;;;;2.27;53.38;101384.39;1739281;81;20100;-78
2024/03/11 13:44:10;;;;;;;;;;;;;;;2.25;53.66;101369.40;1741039;81;20107;-78
2024/03/11 13:46:31;;;;;;;;;;;;;;;2.25;53.81;101370.26;1761927;81;20106;-79
2024/03/11 13:48:57;;;;;;;;;;;;;;;2.28;53.71;101371.97;1763586;81;20113;-78
2024/03/11 13:51:23;;;;;;;;;;;;;;;2.28;53.41;101372.83;1736687;81;20120;-82
2024/03/11 13:53:50;;;;;;;;;;;;;;;2.25;53.56;101362.55;1741639;81;20085;-76
2024/03/11 13:56:16;;;;;;;;;;;;;;;2.25;54.04;101359.12;1754651;81;20136;-80
2024/03/11 13:58:42;;;;;;;;;;;;;;;2.27;53.93;101359.98;1763373;81;20137;-75
2024/03/11 14:01:09;;;;;;;;;;;;;;;2.28;53.95;101355.27;1763551;81;20125;-77
2024/03/11 14:03:36;;;;;;;;;;;;;;;2.26;53.86;101350.12;1763417;81;20106;-74
2024/03/11 14:06:03;;;;;;;;;;;;;;;2.26;53.27;101350.55;1763017;81;20112;-77
2024/03/11 14:08:39;;;;;;;;;;;;;;;2.22;53.14;101346.27;1738159;81;20166;-76
2024/03/11 14:11:05;;;;;;;;;;;;;;;2.21;53.60;101349.70;1737926;81;20385;-75
2024/03/11 14:13:33;;;;;;;;;;;;;;;2.22;54.17;101347.12;1747727;81;20137;-75
2024/03/11 14:16:00;;;;;;;;;;;;;;;2.25;54.13;101339.41;1754175;81;20422;-78
2024/03/11 14:18:28;;;;;;;;;;;;;;;2.28;54.09;101343.70;1749653;81;20134;-75
2024/03/11 14:20:54;;;;;;;;;;;;;;;2.27;53.79;101344.12;1733199;83;20430;-77
2024/03/11 14:23:20;;;;;;;;;;;;;;;2.25;54.09;101334.27;1733275;83;20115;-77
2024/03/11 14:25:51;;;;;;;;;;;;;;;2.26;54.65;101338.56;1751932;82;20156;-81
2024/03/11 14:28:16;;;;;;;;;;;;;;;2.28;53.78;101335.98;1715443;84;20144;-80
2024/03/11 14:30:45;;;;;;;;;;;;;;;2.26;53.62;101335.98;1701784;81;20374;-79
2024/03/11 14:33:13;;;;;;;;;;;;;;;2.20;53.81;101336.42;1750270;81;20167;-80
2024/03/11 14:35:39;;;;;;;;;;;;;;;2.17;54.37;101330.00;1734081;82;20375;-78
2024/03/11 14:38:08;;;;;;;;;;;;;;;2.16;54.78;101328.28;1747094;81;20569;-78
2024/03/11 14:40:41;;;;;;;;;;;;;;;2.15;54.90;101325.29;1749278;81;20191;-78
2024/03/11 14:43:10;;;;;;;;;;;;;;;2.16;55.09;101321.86;1756936;81;20209;-77
2024/03/11 14:46:03;;;;;;;;;;;;;;;2.17;55.20;101324.43;1739259;81;20131;-77
2024/03/11 14:48:46;;;;;;;;;;;;;;;2.15;55.23;101322.29;1711143;83;20801;-74
2024/03/11 14:51:10;;;;;;;;;;;;;;;2.14;55.37;101319.72;1732268;82;20131;-79
2024/03/11 14:53:37;;;;;;;;;;;;;;;2.10;55.20;101312.88;1738929;81;20371;-76
2024/03/11 14:56:57;;;;;;;;;;;;;;;2.09;55.20;101320.16;1751101;81;20144;-77
2024/03/11 14:58:48;;;;;;;;;;;;;;;2.07;54.93;101312.88;1721009;81;20164;-75
